Search for airport 
image banner adimage banner ad
image banner ad

UTDD - Dushanbe

Located in Dushanbe, Tajikistan

ICAO - UTDD, IATA - DYU

Data provided by Airmate  

General information

Coordinates: N38°32'36" E68°49'30"
Elevation is 2575 feet MSL.
 
View others Airports in Region of Republican Subordination

Operational data

Open for public use
Current time UTC:
Current local time:
Weather
METAR: UTDD 040900Z VRB01MPS 1100 1000E R09/1600D -RA BR FEW003 BKN005 OVC008 03/03 Q1028 R09/29//50 TEMPO 0800 FG RMK QBB090 QFE702/0936
TAF: TAF UTDD 040600Z 0407/0419 27005MPS 3100 -RA BR BKN011 OVC020 TEMPO 0407/0419 VRB02MPS 1000 -RASN BR
View NOTAMs / SUP AIP / TFR affecting this airport [VIEW]
Communications frequencies: [VIEW]

Runways:

RWY identifierQFULength (ft)Width (ft)SurfaceLDA (ft)
0990°10210148ASP
27270°10210148

Airport contact information

Address: Dushanbe Tajikistan

Satellite view of UTDD